sensor_id;sensor_type;location;lat;lon;timestamp;pressure;altitude;pressure_sealevel;temperature;humidity
29121;BME280;16191;49.548;8.658;2022-07-29T00:02:25;100178.94;;;23.11;44.04
29121;BME280;16191;49.548;8.658;2022-07-29T00:04:51;100174.75;;;22.99;44.31
29121;BME280;16191;49.548;8.658;2022-07-29T00:07:38;100170.00;;;23.03;44.34
29121;BME280;16191;49.548;8.658;2022-07-29T00:10:24;100168.03;;;23.05;44.18
29121;BME280;16191;49.548;8.658;2022-07-29T00:13:11;100152.91;;;23.05;44.81
29121;BME280;16191;49.548;8.658;2022-07-29T00:15:58;100150.66;;;23.01;45.11
29121;BME280;16191;49.548;8.658;2022-07-29T00:18:50;100148.28;;;22.98;44.88
29121;BME280;16191;49.548;8.658;2022-07-29T00:21:36;100169.00;;;23.04;45.61
29121;BME280;16191;49.548;8.658;2022-07-29T00:24:03;100164.25;;;22.98;46.01
29121;BME280;16191;49.548;8.658;2022-07-29T00:26:30;100166.22;;;22.96;45.84
29121;BME280;16191;49.548;8.658;2022-07-29T00:28:59;100167.22;;;22.95;47.26
29121;BME280;16191;49.548;8.658;2022-07-29T00:31:46;100164.84;;;22.92;46.74
29121;BME280;16191;49.548;8.658;2022-07-29T00:34:12;100164.84;;;22.92;46.50
29121;BME280;16191;49.548;8.658;2022-07-29T00:36:58;100161.06;;;22.84;46.80
29121;BME280;16191;49.548;8.658;2022-07-29T00:39:24;100156.41;;;22.77;46.55
29121;BME280;16191;49.548;8.658;2022-07-29T00:41:52;100151.84;;;22.69;46.61
29121;BME280;16191;49.548;8.658;2022-07-29T00:44:20;100150.72;;;22.62;46.79
29121;BME280;16191;49.548;8.658;2022-07-29T00:46:46;100145.81;;;22.67;46.72
29121;BME280;16191;49.548;8.658;2022-07-29T00:49:13;100142.59;;;22.54;46.99
29121;BME280;16191;49.548;8.658;2022-07-29T00:51:40;100152.00;;;22.29;47.92
29121;BME280;16191;49.548;8.658;2022-07-29T00:54:07;100145.13;;;22.36;48.07
29121;BME280;16191;49.548;8.658;2022-07-29T00:56:33;100152.97;;;22.38;48.39
29121;BME280;16191;49.548;8.658;2022-07-29T00:59:00;100143.19;;;22.38;48.37
29121;BME280;16191;49.548;8.658;2022-07-29T01:01:27;100138.13;;;22.35;48.74
29121;BME280;16191;49.548;8.658;2022-07-29T01:03:54;100140.69;;;22.27;49.28
29121;BME280;16191;49.548;8.658;2022-07-29T01:06:21;100144.59;;;22.23;49.32
29121;BME280;16191;49.548;8.658;2022-07-29T01:08:49;100137.44;;;22.23;50.01
29121;BME280;16191;49.548;8.658;2022-07-29T01:11:15;100141.78;;;22.25;49.50
29121;BME280;16191;49.548;8.658;2022-07-29T01:13:44;100129.91;;;22.29;49.99
29121;BME280;16191;49.548;8.658;2022-07-29T01:16:21;100142.78;;;22.23;49.90
29121;BME280;16191;49.548;8.658;2022-07-29T01:18:53;100138.13;;;22.16;50.47
29121;BME280;16191;49.548;8.658;2022-07-29T01:21:50;100133.09;;;22.13;50.72
29121;BME280;16191;49.548;8.658;2022-07-29T01:24:33;100134.09;;;22.02;51.07
29121;BME280;16191;49.548;8.658;2022-07-29T01:30:01;100130.94;;;21.87;51.71
29121;BME280;16191;49.548;8.658;2022-07-29T01:32:36;100127.75;;;21.84;51.86
29121;BME280;16191;49.548;8.658;2022-07-29T01:35:19;100124.50;;;21.80;52.42
29121;BME280;16191;49.548;8.658;2022-07-29T01:37:50;100120.41;;;21.67;53.14
29121;BME280;16191;49.548;8.658;2022-07-29T01:40:30;100131.03;;;21.67;53.23
29121;BME280;16191;49.548;8.658;2022-07-29T01:43:00;100123.50;;;21.62;53.65
29121;BME280;16191;49.548;8.658;2022-07-29T01:45:40;100122.53;;;21.63;53.53
29121;BME280;16191;49.548;8.658;2022-07-29T01:48:15;100116.66;;;21.60;54.01
29121;BME280;16191;49.548;8.658;2022-07-29T01:50:53;100107.00;;;21.59;54.25
29121;BME280;16191;49.548;8.658;2022-07-29T01:53:31;100100.09;;;21.46;55.46
29121;BME280;16191;49.548;8.658;2022-07-29T01:56:04;100099.25;;;21.36;56.12
29121;BME280;16191;49.548;8.658;2022-07-29T01:58:33;100102.13;;;21.24;56.67
29121;BME280;16191;49.548;8.658;2022-07-29T02:01:02;100097.72;;;21.13;57.70
29121;BME280;16191;49.548;8.658;2022-07-29T02:03:30;100107.25;;;21.15;57.63
29121;BME280;16191;49.548;8.658;2022-07-29T02:05:58;100102.50;;;21.19;55.91
29121;BME280;16191;49.548;8.658;2022-07-29T02:08:26;100097.94;;;21.00;56.26
29121;BME280;16191;49.548;8.658;2022-07-29T02:10:54;100094.50;;;21.09;55.99
29121;BME280;16191;49.548;8.658;2022-07-29T02:13:23;100096.63;;;20.85;60.24
29121;BME280;16191;49.548;8.658;2022-07-29T02:15:51;100098.03;;;20.89;61.05
29121;BME280;16191;49.548;8.658;2022-07-29T02:18:22;100095.91;;;20.83;60.65
29121;BME280;16191;49.548;8.658;2022-07-29T02:20:52;100091.16;;;20.77;58.18
29121;BME280;16191;49.548;8.658;2022-07-29T02:23:22;100094.19;;;20.72;57.64
29121;BME280;16191;49.548;8.658;2022-07-29T02:25:51;100091.00;;;20.58;57.49
29121;BME280;16191;49.548;8.658;2022-07-29T02:28:20;100095.03;;;20.52;58.22
29121;BME280;16191;49.548;8.658;2022-07-29T02:30:49;100104.81;;;20.51;59.03
29121;BME280;16191;49.548;8.658;2022-07-29T02:33:19;100098.69;;;20.61;58.41
29121;BME280;16191;49.548;8.658;2022-07-29T02:35:47;100096.78;;;20.63;57.81
29121;BME280;16191;49.548;8.658;2022-07-29T02:38:15;100107.06;;;20.56;57.59
29121;BME280;16191;49.548;8.658;2022-07-29T02:41:05;100102.88;;;20.53;57.14
29121;BME280;16191;49.548;8.658;2022-07-29T02:43:34;100112.94;;;20.60;56.21
29121;BME280;16191;49.548;8.658;2022-07-29T02:46:04;100110.56;;;20.57;56.11
29121;BME280;16191;49.548;8.658;2022-07-29T02:49:09;100113.47;;;20.53;56.15
29121;BME280;16191;49.548;8.658;2022-07-29T02:51:42;100110.16;;;20.61;55.68
29121;BME280;16191;49.548;8.658;2022-07-29T02:54:20;100106.03;;;20.68;55.15
29121;BME280;16191;49.548;8.658;2022-07-29T02:56:48;100098.31;;;20.65;55.77
29121;BME280;16191;49.548;8.658;2022-07-29T02:59:21;100103.50;;;20.67;55.34
29121;BME280;16191;49.548;8.658;2022-07-29T03:01:49;100105.94;;;20.59;55.23
29121;BME280;16191;49.548;8.658;2022-07-29T03:04:18;100102.75;;;20.55;54.77
29121;BME280;16191;49.548;8.658;2022-07-29T03:06:48;100108.16;;;20.53;54.84
29121;BME280;16191;49.548;8.658;2022-07-29T03:09:16;100097.50;;;20.44;55.07
29121;BME280;16191;49.548;8.658;2022-07-29T03:11:43;100104.94;;;20.50;54.79
29121;BME280;16191;49.548;8.658;2022-07-29T03:14:19;100107.84;;;20.47;54.81
29121;BME280;16191;49.548;8.658;2022-07-29T03:16:47;100108.22;;;20.42;55.17
29121;BME280;16191;49.548;8.658;2022-07-29T03:19:14;100113.75;;;20.39;55.41
29121;BME280;16191;49.548;8.658;2022-07-29T03:21:41;100114.00;;;20.36;55.26
29121;BME280;16191;49.548;8.658;2022-07-29T03:24:08;100114.00;;;20.36;55.19
29121;BME280;16191;49.548;8.658;2022-07-29T03:26:36;100108.03;;;20.23;55.76
29121;BME280;16191;49.548;8.658;2022-07-29T03:29:03;100109.25;;;20.19;55.63
29121;BME280;16191;49.548;8.658;2022-07-29T03:31:29;100104.94;;;20.18;55.78
29121;BME280;16191;49.548;8.658;2022-07-29T03:33:56;100112.25;;;20.26;55.12
29121;BME280;16191;49.548;8.658;2022-07-29T03:36:23;100105.97;;;20.27;54.88
29121;BME280;16191;49.548;8.658;2022-07-29T03:38:51;100111.97;;;20.08;55.46
29121;BME280;16191;49.548;8.658;2022-07-29T03:41:18;100106.66;;;20.08;55.21
29121;BME280;16191;49.548;8.658;2022-07-29T03:43:49;100107.38;;;20.10;54.97
29121;BME280;16191;49.548;8.658;2022-07-29T03:46:16;100109.09;;;20.00;55.28
29121;BME280;16191;49.548;8.658;2022-07-29T03:48:46;100100.41;;;20.09;55.26
29121;BME280;16191;49.548;8.658;2022-07-29T03:51:15;100108.97;;;20.01;55.37
29121;BME280;16191;49.548;8.658;2022-07-29T03:53:42;100111.38;;;20.04;55.35
29121;BME280;16191;49.548;8.658;2022-07-29T03:56:09;100107.50;;;20.08;56.17
29121;BME280;16191;49.548;8.658;2022-07-29T03:58:37;100108.00;;;20.02;56.98
29121;BME280;16191;49.548;8.658;2022-07-29T04:01:04;100106.94;;;19.94;56.29
29121;BME280;16191;49.548;8.658;2022-07-29T04:03:31;100106.94;;;19.94;56.03
29121;BME280;16191;49.548;8.658;2022-07-29T04:05:59;100105.84;;;19.96;55.42
29121;BME280;16191;49.548;8.658;2022-07-29T04:08:26;100103.81;;;20.00;55.95
29121;BME280;16191;49.548;8.658;2022-07-29T04:10:53;100103.00;;;19.88;56.64
29121;BME280;16191;49.548;8.658;2022-07-29T04:13:20;100106.94;;;19.94;56.77
29121;BME280;16191;49.548;8.658;2022-07-29T04:15:46;100103.09;;;19.98;58.29
29121;BME280;16191;49.548;8.658;2022-07-29T04:18:14;100113.19;;;19.93;56.75
29121;BME280;16191;49.548;8.658;2022-07-29T04:20:40;100105.41;;;19.91;56.80
29121;BME280;16191;49.548;8.658;2022-07-29T04:23:07;100112.28;;;19.82;56.61
29121;BME280;16191;49.548;8.658;2022-07-29T04:25:36;100121.19;;;19.81;56.47
29121;BME280;16191;49.548;8.658;2022-07-29T04:28:03;100120.84;;;19.75;58.95
29121;BME280;16191;49.548;8.658;2022-07-29T04:30:31;100120.00;;;19.74;58.34
29121;BME280;16191;49.548;8.658;2022-07-29T04:32:58;100120.00;;;19.85;58.73
29121;BME280;16191;49.548;8.658;2022-07-29T04:35:28;100126.00;;;19.88;61.83
29121;BME280;16191;49.548;8.658;2022-07-29T04:37:54;100127.69;;;19.89;60.40
29121;BME280;16191;49.548;8.658;2022-07-29T04:40:21;100130.34;;;19.89;60.00
29121;BME280;16191;49.548;8.658;2022-07-29T04:42:48;100130.78;;;19.94;59.78
29121;BME280;16191;49.548;8.658;2022-07-29T04:45:14;100132.47;;;19.95;62.30
29121;BME280;16191;49.548;8.658;2022-07-29T04:47:47;100130.09;;;19.92;64.62
29121;BME280;16191;49.548;8.658;2022-07-29T04:50:14;100130.28;;;20.00;65.76
29121;BME280;16191;49.548;8.658;2022-07-29T04:52:40;100129.94;;;19.93;65.32
29121;BME280;16191;49.548;8.658;2022-07-29T04:55:07;100127.97;;;20.06;65.75
29121;BME280;16191;49.548;8.658;2022-07-29T04:57:34;100136.19;;;20.03;65.64
29121;BME280;16191;49.548;8.658;2022-07-29T05:00:00;100132.44;;;20.06;67.96
29121;BME280;16191;49.548;8.658;2022-07-29T05:02:27;100129.66;;;20.07;68.36
29121;BME280;16191;49.548;8.658;2022-07-29T05:04:54;100131.59;;;20.05;68.80
29121;BME280;16191;49.548;8.658;2022-07-29T05:07:20;100123.78;;;20.04;69.07
29121;BME280;16191;49.548;8.658;2022-07-29T05:09:47;100126.53;;;20.13;68.61
29121;BME280;16191;49.548;8.658;2022-07-29T05:12:13;100121.66;;;20.18;67.69
29121;BME280;16191;49.548;8.658;2022-07-29T05:14:40;100128.75;;;20.18;63.35
29121;BME280;16191;49.548;8.658;2022-07-29T05:17:06;100131.22;;;20.10;66.26
29121;BME280;16191;49.548;8.658;2022-07-29T05:19:33;100132.38;;;20.17;64.44
29121;BME280;16191;49.548;8.658;2022-07-29T05:22:04;100135.00;;;20.28;62.09
29121;BME280;16191;49.548;8.658;2022-07-29T05:24:31;100132.22;;;20.30;60.82
29121;BME280;16191;49.548;8.658;2022-07-29T05:26:58;100134.88;;;20.30;58.99
29121;BME280;16191;49.548;8.658;2022-07-29T05:29:24;100130.84;;;20.35;58.39
29121;BME280;16191;49.548;8.658;2022-07-29T05:32:12;100129.69;;;20.28;58.81
29121;BME280;16191;49.548;8.658;2022-07-29T05:34:39;100129.78;;;20.38;59.12
29121;BME280;16191;49.548;8.658;2022-07-29T05:37:18;100137.59;;;20.50;57.59
29121;BME280;16191;49.548;8.658;2022-07-29T05:39:45;100135.19;;;20.47;58.12
29121;BME280;16191;49.548;8.658;2022-07-29T05:42:21;100137.31;;;20.53;57.92
29121;BME280;16191;49.548;8.658;2022-07-29T05:44:48;100134.47;;;20.66;57.06
29121;BME280;16191;49.548;8.658;2022-07-29T05:47:14;100136.03;;;20.69;57.11
29121;BME280;16191;49.548;8.658;2022-07-29T05:49:42;100142.03;;;20.71;56.71
29121;BME280;16191;49.548;8.658;2022-07-29T05:52:08;100144.88;;;20.79;56.98
29121;BME280;16191;49.548;8.658;2022-07-29T05:54:35;100143.13;;;20.89;56.33
29121;BME280;16191;49.548;8.658;2022-07-29T05:57:02;100143.59;;;20.94;56.61
29121;BME280;16191;49.548;8.658;2022-07-29T05:59:29;100140.97;;;21.04;57.28
29121;BME280;16191;49.548;8.658;2022-07-29T06:01:56;100149.34;;;20.99;57.00
29121;BME280;16191;49.548;8.658;2022-07-29T06:04:23;100145.31;;;21.05;57.32
29121;BME280;16191;49.548;8.658;2022-07-29T06:06:50;100145.72;;;21.21;57.23
29121;BME280;16191;49.548;8.658;2022-07-29T06:09:17;100152.16;;;21.28;57.86
29121;BME280;16191;49.548;8.658;2022-07-29T06:11:43;100152.19;;;21.38;58.21
29121;BME280;16191;49.548;8.658;2022-07-29T06:14:10;100151.13;;;21.50;58.22
29121;BME280;16191;49.548;8.658;2022-07-29T06:16:37;100151.69;;;21.53;58.29
29121;BME280;16191;49.548;8.658;2022-07-29T06:19:04;100151.72;;;21.63;58.39
29121;BME280;16191;49.548;8.658;2022-07-29T06:21:30;100153.19;;;21.86;59.03
29121;BME280;16191;49.548;8.658;2022-07-29T06:23:57;100149.97;;;21.83;59.24
29121;BME280;16191;49.548;8.658;2022-07-29T06:26:23;100154.56;;;21.90;60.58
29121;BME280;16191;49.548;8.658;2022-07-29T06:28:56;100162.72;;;21.99;59.96
29121;BME280;16191;49.548;8.658;2022-07-29T06:31:22;100159.66;;;22.13;61.11
29121;BME280;16191;49.548;8.658;2022-07-29T06:33:49;100161.06;;;22.17;63.09
29121;BME280;16191;49.548;8.658;2022-07-29T06:36:15;100159.69;;;22.22;64.92
29121;BME280;16191;49.548;8.658;2022-07-29T06:38:42;100161.25;;;22.25;66.10
29121;BME280;16191;49.548;8.658;2022-07-29T06:41:17;100164.16;;;22.32;66.57
29121;BME280;16191;49.548;8.658;2022-07-29T06:43:45;100174.81;;;22.41;66.41
29121;BME280;16191;49.548;8.658;2022-07-29T06:46:20;100158.13;;;22.58;66.21
29121;BME280;16191;49.548;8.658;2022-07-29T06:48:48;100162.63;;;22.58;66.23
29121;BME280;16191;49.548;8.658;2022-07-29T06:51:15;100162.72;;;22.76;66.05
29121;BME280;16191;49.548;8.658;2022-07-29T06:53:48;100165.56;;;22.84;65.74
29121;BME280;16191;49.548;8.658;2022-07-29T06:56:27;100172.84;;;22.92;68.15
29121;BME280;16191;49.548;8.658;2022-07-29T06:58:53;100165.00;;;22.71;69.79
29121;BME280;16191;49.548;8.658;2022-07-29T07:01:20;100180.53;;;22.95;68.11
29121;BME280;16191;49.548;8.658;2022-07-29T07:03:47;100179.94;;;23.10;69.06
29121;BME280;16191;49.548;8.658;2022-07-29T07:06:14;100172.19;;;23.17;68.87
29121;BME280;16191;49.548;8.658;2022-07-29T07:08:40;100175.25;;;23.22;70.30
29121;BME280;16191;49.548;8.658;2022-07-29T07:11:08;100184.97;;;23.04;71.57
29121;BME280;16191;49.548;8.658;2022-07-29T07:13:34;100189.84;;;23.18;71.54
29121;BME280;16191;49.548;8.658;2022-07-29T07:16:02;100189.94;;;23.36;71.03
29121;BME280;16191;49.548;8.658;2022-07-29T07:18:29;100185.53;;;23.54;70.84
29121;BME280;16191;49.548;8.658;2022-07-29T07:20:56;100185.44;;;23.36;70.97
29121;BME280;16191;49.548;8.658;2022-07-29T07:23:23;100185.53;;;23.44;70.78
29121;BME280;16191;49.548;8.658;2022-07-29T07:25:50;100182.81;;;23.64;70.13
29121;BME280;16191;49.548;8.658;2022-07-29T07:28:17;100178.31;;;23.91;68.12
29121;BME280;16191;49.548;8.658;2022-07-29T07:30:50;100173.78;;;24.02;67.87
29121;BME280;16191;49.548;8.658;2022-07-29T07:33:16;100179.84;;;23.94;67.44
29121;BME280;16191;49.548;8.658;2022-07-29T07:35:43;100186.28;;;24.01;67.26
29121;BME280;16191;49.548;8.658;2022-07-29T07:38:10;100195.56;;;24.24;65.29
29121;BME280;16191;49.548;8.658;2022-07-29T07:40:37;100193.56;;;24.44;64.06
29121;BME280;16191;49.548;8.658;2022-07-29T07:43:03;100192.09;;;24.50;64.41
29121;BME280;16191;49.548;8.658;2022-07-29T07:45:30;100196.81;;;24.74;62.50
29121;BME280;16191;49.548;8.658;2022-07-29T07:47:59;100189.09;;;24.88;61.56
29121;BME280;16191;49.548;8.658;2022-07-29T07:50:25;100188.88;;;24.82;61.24
29121;BME280;16191;49.548;8.658;2022-07-29T07:52:54;100182.78;;;24.89;60.48
29121;BME280;16191;49.548;8.658;2022-07-29T07:55:25;100188.19;;;24.80;61.32
29121;BME280;16191;49.548;8.658;2022-07-29T07:57:53;100189.97;;;24.53;62.48
29121;BME280;16191;49.548;8.658;2022-07-29T08:00:20;100194.84;;;24.58;62.54
29121;BME280;16191;49.548;8.658;2022-07-29T08:02:48;100188.34;;;24.78;61.01
29121;BME280;16191;49.548;8.658;2022-07-29T08:05:16;100190.03;;;24.79;61.33
29121;BME280;16191;49.548;8.658;2022-07-29T08:07:46;100190.41;;;24.84;61.22
29121;BME280;16191;49.548;8.658;2022-07-29T08:10:18;100188.19;;;24.80;61.05
29121;BME280;16191;49.548;8.658;2022-07-29T08:13:09;100198.81;;;24.54;61.28
29121;BME280;16191;49.548;8.658;2022-07-29T08:15:38;100203.69;;;24.58;61.73
29121;BME280;16191;49.548;8.658;2022-07-29T08:18:05;100192.53;;;24.81;61.37
29121;BME280;16191;49.548;8.658;2022-07-29T08:20:35;100200.13;;;24.68;61.23
29121;BME280;16191;49.548;8.658;2022-07-29T08:23:02;100193.09;;;24.67;61.13
29121;BME280;16191;49.548;8.658;2022-07-29T08:25:30;100195.44;;;24.70;61.35
29121;BME280;16191;49.548;8.658;2022-07-29T08:27:57;100197.72;;;24.47;61.64
29121;BME280;16191;49.548;8.658;2022-07-29T08:30:24;100202.00;;;24.57;61.32
29121;BME280;16191;49.548;8.658;2022-07-29T08:32:50;100199.94;;;24.69;61.33
29121;BME280;16191;49.548;8.658;2022-07-29T08:35:21;100195.63;;;24.94;60.46
29121;BME280;16191;49.548;8.658;2022-07-29T08:37:48;100199.59;;;25.08;59.58
29121;BME280;16191;49.548;8.658;2022-07-29T08:40:15;100196.50;;;24.94;60.29
29121;BME280;16191;49.548;8.658;2022-07-29T08:42:42;100199.25;;;25.37;58.04
29121;BME280;16191;49.548;8.658;2022-07-29T08:45:09;100195.44;;;25.65;57.31
29121;BME280;16191;49.548;8.658;2022-07-29T08:47:38;100203.53;;;25.89;56.56
29121;BME280;16191;49.548;8.658;2022-07-29T08:50:09;100205.91;;;25.92;55.27
29121;BME280;16191;49.548;8.658;2022-07-29T08:52:39;100206.28;;;26.22;54.49
29121;BME280;16191;49.548;8.658;2022-07-29T08:55:08;100207.13;;;26.22;54.77
29121;BME280;16191;49.548;8.658;2022-07-29T08:57:35;100211.91;;;26.53;53.76
29121;BME280;16191;49.548;8.658;2022-07-29T09:00:06;100209.75;;;26.81;52.44
29121;BME280;16191;49.548;8.658;2022-07-29T09:02:44;100201.53;;;27.07;51.35
29121;BME280;16191;49.548;8.658;2022-07-29T09:05:13;100206.38;;;27.19;51.17
29121;BME280;16191;49.548;8.658;2022-07-29T09:07:40;100208.75;;;27.06;51.60
29121;BME280;16191;49.548;8.658;2022-07-29T09:10:09;100211.59;;;27.05;51.48
29121;BME280;16191;49.548;8.658;2022-07-29T09:12:36;100206.38;;;27.11;51.11
29121;BME280;16191;49.548;8.658;2022-07-29T09:15:04;100213.41;;;26.88;51.91
29121;BME280;16191;49.548;8.658;2022-07-29T09:17:41;100207.53;;;26.44;53.29
29121;BME280;16191;49.548;8.658;2022-07-29T09:20:13;100206.69;;;26.43;53.11
29121;BME280;16191;49.548;8.658;2022-07-29T09:22:40;100203.06;;;26.60;52.99
29121;BME280;16191;49.548;8.658;2022-07-29T09:25:08;100200.06;;;27.04;51.78
29121;BME280;16191;49.548;8.658;2022-07-29T09:27:34;100192.75;;;27.45;50.14
29121;BME280;16191;49.548;8.658;2022-07-29T09:30:08;100189.22;;;27.45;49.80
29121;BME280;16191;49.548;8.658;2022-07-29T09:32:56;100199.00;;;27.77;48.58
29121;BME280;16191;49.548;8.658;2022-07-29T09:35:25;100196.50;;;27.75;49.26
29121;BME280;16191;49.548;8.658;2022-07-29T09:37:52;100189.69;;;27.56;48.88
29121;BME280;16191;49.548;8.658;2022-07-29T09:40:24;100190.56;;;27.49;48.50
29121;BME280;16191;49.548;8.658;2022-07-29T09:42:51;100194.94;;;27.89;47.99
29121;BME280;16191;49.548;8.658;2022-07-29T09:45:30;100195.09;;;27.48;48.58
29121;BME280;16191;49.548;8.658;2022-07-29T09:47:57;100202.72;;;26.96;50.38
29121;BME280;16191;49.548;8.658;2022-07-29T09:50:39;100215.13;;;27.05;50.03
29121;BME280;16191;49.548;8.658;2022-07-29T09:53:06;100205.78;;;27.64;48.43
29121;BME280;16191;49.548;8.658;2022-07-29T09:55:53;100201.56;;;27.70;48.63
29121;BME280;16191;49.548;8.658;2022-07-29T09:58:21;100203.53;;;27.21;48.67
29121;BME280;16191;49.548;8.658;2022-07-29T10:00:50;100202.16;;;27.88;47.35
29121;BME280;16191;49.548;8.658;2022-07-29T10:03:17;100197.81;;;27.79;47.88
29121;BME280;16191;49.548;8.658;2022-07-29T10:05:45;100198.47;;;27.81;47.70
29121;BME280;16191;49.548;8.658;2022-07-29T10:08:12;100192.56;;;28.48;45.88
29121;BME280;16191;49.548;8.658;2022-07-29T10:10:41;100197.41;;;28.29;46.70
29121;BME280;16191;49.548;8.658;2022-07-29T10:13:11;100189.84;;;28.33;46.01
29121;BME280;16191;49.548;8.658;2022-07-29T10:15:43;100194.59;;;28.46;45.73
29121;BME280;16191;49.548;8.658;2022-07-29T10:18:12;100186.56;;;29.21;43.76
29121;BME280;16191;49.548;8.658;2022-07-29T10:20:39;100189.94;;;28.85;45.25
29121;BME280;16191;49.548;8.658;2022-07-29T10:23:06;100189.47;;;29.49;43.64
29121;BME280;16191;49.548;8.658;2022-07-29T10:25:32;100192.41;;;29.39;43.13
29121;BME280;16191;49.548;8.658;2022-07-29T10:27:59;100185.56;;;29.66;42.54
29121;BME280;16191;49.548;8.658;2022-07-29T10:30:26;100185.19;;;29.69;42.23
29121;BME280;16191;49.548;8.658;2022-07-29T10:33:21;100192.16;;;30.14;41.70
29121;BME280;16191;49.548;8.658;2022-07-29T10:41:38;100180.47;;;30.43;40.51
29121;BME280;16191;49.548;8.658;2022-07-29T10:44:18;100177.88;;;30.14;40.94
29121;BME280;16191;49.548;8.658;2022-07-29T10:46:49;100177.94;;;30.84;40.77
29121;BME280;16191;49.548;8.658;2022-07-29T10:49:24;100179.06;;;30.68;40.00
29121;BME280;16191;49.548;8.658;2022-07-29T10:54:40;100172.00;;;30.67;39.88
29121;BME280;16191;49.548;8.658;2022-07-29T10:59:42;100165.66;;;31.72;38.04
29121;BME280;16191;49.548;8.658;2022-07-29T11:05:17;100163.72;;;30.05;40.72
29121;BME280;16191;49.548;8.658;2022-07-29T11:10:47;100162.63;;;29.99;41.01
29121;BME280;16191;49.548;8.658;2022-07-29T11:16:09;100161.38;;;31.50;38.21
29121;BME280;16191;49.548;8.658;2022-07-29T11:21:41;100155.28;;;32.63;36.17
29121;BME280;16191;49.548;8.658;2022-07-29T11:24:29;100158.19;;;32.61;36.19
29121;BME280;16191;49.548;8.658;2022-07-29T11:27:18;100145.94;;;32.79;35.66
29121;BME280;16191;49.548;8.658;2022-07-29T11:29:57;100142.41;;;32.78;35.19
29121;BME280;16191;49.548;8.658;2022-07-29T11:32:36;100149.66;;;32.38;35.99
29121;BME280;16191;49.548;8.658;2022-07-29T11:35:33;100152.75;;;32.22;36.88
29121;BME280;16191;49.548;8.658;2022-07-29T11:38:24;100144.66;;;31.67;36.81
29121;BME280;16191;49.548;8.658;2022-07-29T11:43:56;100139.72;;;31.71;36.92
29121;BME280;16191;49.548;8.658;2022-07-29T11:46:50;100146.41;;;31.82;37.04
29121;BME280;16191;49.548;8.658;2022-07-29T11:49:21;100154.47;;;31.06;37.93
29121;BME280;16191;49.548;8.658;2022-07-29T11:51:59;100146.19;;;31.90;36.75
29121;BME280;16191;49.548;8.658;2022-07-29T11:54:32;100145.19;;;31.97;36.29
29121;BME280;16191;49.548;8.658;2022-07-29T11:57:18;100140.63;;;31.98;36.80
29121;BME280;16191;49.548;8.658;2022-07-29T11:59:47;100133.63;;;33.09;34.25
29121;BME280;16191;49.548;8.658;2022-07-29T12:02:14;100130.47;;;32.13;35.26
29121;BME280;16191;49.548;8.658;2022-07-29T12:05:02;100119.53;;;32.74;34.86
29121;BME280;16191;49.548;8.658;2022-07-29T12:07:48;100126.38;;;32.24;35.68
29121;BME280;16191;49.548;8.658;2022-07-29T12:10:15;100122.81;;;32.96;33.79
29121;BME280;16191;49.548;8.658;2022-07-29T12:12:55;100110.09;;;33.23;33.47
29121;BME280;16191;49.548;8.658;2022-07-29T12:15:21;100118.41;;;33.79;32.33
29121;BME280;16191;49.548;8.658;2022-07-29T12:18:15;100116.13;;;33.76;32.48
29121;BME280;16191;49.548;8.658;2022-07-29T12:20:44;100115.25;;;33.37;33.50
29121;BME280;16191;49.548;8.658;2022-07-29T12:23:12;100116.63;;;33.60;32.37
29121;BME280;16191;49.548;8.658;2022-07-29T12:25:43;100111.34;;;33.33;32.01
29121;BME280;16191;49.548;8.658;2022-07-29T12:28:15;100110.94;;;33.75;31.88
29121;BME280;16191;49.548;8.658;2022-07-29T12:30:53;100115.63;;;34.55;31.08
29121;BME280;16191;49.548;8.658;2022-07-29T12:33:28;100115.50;;;34.68;30.56
29121;BME280;16191;49.548;8.658;2022-07-29T12:35:58;100117.66;;;34.03;31.65
29121;BME280;16191;49.548;8.658;2022-07-29T12:38:40;100125.44;;;33.35;31.99
29121;BME280;16191;49.548;8.658;2022-07-29T12:41:06;100117.53;;;33.41;32.09
29121;BME280;16191;49.548;8.658;2022-07-29T12:43:33;100120.53;;;33.70;31.72
29121;BME280;16191;49.548;8.658;2022-07-29T12:46:12;100116.97;;;34.15;31.48
29121;BME280;16191;49.548;8.658;2022-07-29T12:48:40;100105.78;;;33.60;31.70
29121;BME280;16191;49.548;8.658;2022-07-29T12:51:08;100109.63;;;33.46;31.57
29121;BME280;16191;49.548;8.658;2022-07-29T12:53:36;100103.34;;;33.96;31.32
29121;BME280;16191;49.548;8.658;2022-07-29T12:56:04;100110.81;;;34.57;30.49
29121;BME280;16191;49.548;8.658;2022-07-29T12:58:46;100101.03;;;34.99;29.71
29121;BME280;16191;49.548;8.658;2022-07-29T13:01:18;100096.88;;;34.29;30.30
29121;BME280;16191;49.548;8.658;2022-07-29T13:03:56;100102.78;;;34.44;30.45
29121;BME280;16191;49.548;8.658;2022-07-29T13:06:34;100094.44;;;33.89;30.88
29121;BME280;16191;49.548;8.658;2022-07-29T13:12:05;100097.44;;;35.24;29.19
29121;BME280;16191;49.548;8.658;2022-07-29T13:14:33;100096.84;;;35.03;28.90
29121;BME280;16191;49.548;8.658;2022-07-29T13:17:04;100089.97;;;35.37;28.22
29121;BME280;16191;49.548;8.658;2022-07-29T13:22:02;100087.66;;;36.01;27.05
29121;BME280;16191;49.548;8.658;2022-07-29T13:24:29;100084.47;;;36.34;26.33
29121;BME280;16191;49.548;8.658;2022-07-29T13:26:56;100090.72;;;36.69;26.21
29121;BME280;16191;49.548;8.658;2022-07-29T13:29:22;100093.88;;;35.60;26.87
29121;BME280;16191;49.548;8.658;2022-07-29T13:31:54;100091.25;;;36.13;25.16
29121;BME280;16191;49.548;8.658;2022-07-29T13:34:21;100090.28;;;35.48;26.71
29121;BME280;16191;49.548;8.658;2022-07-29T13:36:48;100088.28;;;36.15;26.00
29121;BME280;16191;49.548;8.658;2022-07-29T13:39:15;100097.50;;;35.17;27.28
29121;BME280;16191;49.548;8.658;2022-07-29T13:41:41;100094.34;;;35.87;27.18
29121;BME280;16191;49.548;8.658;2022-07-29T13:44:08;100098.72;;;35.39;27.45